Time;durP1;ratioP1;P1;durP2;ratioP2;P2;SDS_P1;SDS_P2;PMS_P1;PMS_P2;Temp;Humidity;BMP_temperature;BMP_pressure;BME280_temperature;BME280_humidity;BME280_pressure;Samples;Min_cycle;Max_cycle;Signal;HPM_P1;HPM_P2
2021/08/21 00:02:09;;;;;;;7.75;4.03;;;;;17.80;100615.00;;;;5027615;28;20488;-80
2021/08/21 00:04:37;;;;;;;10.15;3.63;;;;;18.00;100622.00;;;;5027724;28;20495;-81
2021/08/21 00:07:07;;;;;;;12.90;5.20;;;;;18.00;100602.00;;;;5027967;28;20037;-81
2021/08/21 00:09:35;;;;;;;9.00;4.30;;;;;18.20;100658.00;;;;5027571;28;20043;-82
2021/08/21 00:12:01;;;;;;;7.50;3.58;;;;;18.30;100618.00;;;;5028330;28;20125;-80
2021/08/21 00:14:28;;;;;;;9.05;3.67;;;;;17.90;100647.00;;;;5029120;28;20037;-80
2021/08/21 00:16:54;;;;;;;11.93;3.35;;;;;17.80;100674.00;;;;5027314;28;20040;-81
2021/08/21 00:19:21;;;;;;;7.13;3.47;;;;;17.70;100678.00;;;;5026340;28;20040;-80
2021/08/21 00:21:48;;;;;;;5.78;3.33;;;;;17.50;100655.00;;;;5026941;28;20036;-81
2021/08/21 00:24:16;;;;;;;11.52;3.45;;;;;17.40;100662.00;;;;5027704;28;20033;-80
2021/08/21 00:26:42;;;;;;;6.38;3.70;;;;;17.40;100671.00;;;;5027369;28;20511;-80
2021/08/21 00:29:09;;;;;;;4.90;3.40;;;;;17.20;100645.00;;;;5026873;28;20403;-82
2021/08/21 00:31:35;;;;;;;10.68;4.03;;;;;17.00;100656.00;;;;5026706;28;20036;-80
2021/08/21 00:34:03;;;;;;;8.70;3.85;;;;;17.00;100651.00;;;;5027584;28;20866;-80
2021/08/21 00:36:30;;;;;;;12.25;3.95;;;;;16.90;100617.00;;;;5027034;28;20464;-80
2021/08/21 00:38:56;;;;;;;6.07;3.83;;;;;16.80;100625.00;;;;5027016;28;20107;-80
2021/08/21 00:41:23;;;;;;;4.63;3.42;;;;;16.80;100610.00;;;;5026981;28;20033;-80
2021/08/21 00:43:50;;;;;;;9.50;3.92;;;;;16.80;100607.00;;;;5026711;28;20033;-80
2021/08/21 00:46:17;;;;;;;8.60;3.65;;;;;16.80;100610.00;;;;5026888;28;20028;-79
2021/08/21 00:48:43;;;;;;;6.35;3.95;;;;;16.70;100594.00;;;;5025966;28;20029;-80
2021/08/21 00:51:10;;;;;;;5.03;3.88;;;;;16.60;100627.00;;;;5026338;28;20087;-82
2021/08/21 00:53:37;;;;;;;6.90;3.92;;;;;16.60;100613.00;;;;5027070;28;20116;-81
2021/08/21 00:56:04;;;;;;;8.80;4.20;;;;;16.60;100626.00;;;;5027340;28;20771;-80
2021/08/21 00:58:32;;;;;;;13.73;3.80;;;;;16.60;100643.00;;;;5027597;28;20032;-80
2021/08/21 01:00:59;;;;;;;7.20;4.20;;;;;16.60;100628.00;;;;5025573;28;20022;-82
2021/08/21 01:03:26;;;;;;;5.55;3.80;;;;;16.60;100644.00;;;;5026466;28;20029;-80
2021/08/21 01:05:52;;;;;;;5.97;3.65;;;;;16.50;100622.00;;;;5027922;28;20041;-80
2021/08/21 01:08:19;;;;;;;4.75;3.67;;;;;16.50;100671.00;;;;5031413;28;20124;-80
2021/08/21 01:10:47;;;;;;;8.77;4.15;;;;;16.50;100655.00;;;;5031954;28;20373;-82
2021/08/21 01:13:13;;;;;;;5.93;4.05;;;;;16.60;100682.00;;;;5031200;28;20029;-82
2021/08/21 01:15:40;;;;;;;7.07;4.40;;;;;16.60;100686.00;;;;5030791;28;20060;-80
2021/08/21 01:18:07;;;;;;;6.93;4.20;;;;;16.50;100737.00;;;;5034054;28;20068;-81
2021/08/21 01:20:34;;;;;;;9.55;4.97;;;;;16.60;100762.00;;;;5035461;28;20095;-81
2021/08/21 01:23:05;;;;;;;8.10;4.10;;;;;16.60;100762.00;;;;5033299;28;20033;-78
2021/08/21 01:25:33;;;;;;;8.88;4.90;;;;;16.60;100746.00;;;;5033699;28;20030;-80
2021/08/21 01:28:00;;;;;;;11.60;4.93;;;;;16.60;100739.00;;;;5033683;28;20519;-78
2021/08/21 01:30:27;;;;;;;6.80;4.85;;;;;17.00;100786.00;;;;5030607;28;20110;-79
2021/08/21 01:32:54;;;;;;;7.53;5.32;;;;;17.20;100794.00;;;;5031239;28;20055;-79
2021/08/21 01:35:21;;;;;;;9.25;5.03;;;;;17.20;100807.00;;;;5031833;28;20040;-78
2021/08/21 01:37:47;;;;;;;10.07;4.53;;;;;17.00;100811.00;;;;5033376;28;20021;-77
2021/08/21 01:40:14;;;;;;;8.75;4.97;;;;;17.10;100817.00;;;;5032628;28;20510;-80
2021/08/21 01:42:41;;;;;;;10.35;5.30;;;;;17.20;100796.00;;;;5031858;28;20032;-78
2021/08/21 01:45:11;;;;;;;7.03;5.10;;;;;17.00;100785.00;;;;5032790;28;20072;-80
2021/08/21 01:47:38;;;;;;;9.82;5.45;;;;;17.10;100770.00;;;;5031192;28;20033;-80
2021/08/21 01:50:09;;;;;;;8.85;5.55;;;;;17.00;100775.00;;;;5028995;28;20523;-80
2021/08/21 01:52:35;;;;;;;;;;;;;17.00;100792.00;;;;5030697;28;20035;-80
2021/08/21 01:55:02;;;;;;;8.85;5.72;;;;;16.90;100762.00;;;;5029864;28;19924;-79
2021/08/21 01:57:29;;;;;;;8.82;5.68;;;;;16.90;100763.00;;;;5030146;28;20408;-79
2021/08/21 01:59:55;;;;;;;8.23;5.78;;;;;16.90;100769.00;;;;5029689;28;20021;-80
2021/08/21 02:02:24;;;;;;;18.38;5.93;;;;;16.80;100728.00;;;;5028078;28;20132;-82
2021/08/21 02:04:51;;;;;;;10.48;6.57;;;;;17.00;100753.00;;;;5029711;28;20025;-79
2021/08/21 02:07:17;;;;;;;13.95;6.65;;;;;17.00;100767.00;;;;5030563;28;20045;-79
2021/08/21 02:09:44;;;;;;;8.02;6.53;;;;;16.90;100735.00;;;;5030103;28;20037;-79
2021/08/21 02:12:15;;;;;;;8.18;6.45;;;;;16.80;100765.00;;;;5029952;28;20061;-77
2021/08/21 02:14:41;;;;;;;12.30;7.70;;;;;16.60;100752.00;;;;5030068;28;20767;-79
2021/08/21 02:17:08;;;;;;;10.10;7.00;;;;;16.50;100782.00;;;;5029432;28;20501;-79
2021/08/21 02:19:35;;;;;;;11.45;7.20;;;;;16.50;100805.00;;;;5028304;28;20175;-80
2021/08/21 02:22:03;;;;;;;14.32;7.13;;;;;16.40;100813.00;;;;5029100;28;20120;-78
2021/08/21 02:24:32;;;;;;;10.13;6.88;;;;;16.30;100800.00;;;;5029504;28;20044;-78
2021/08/21 02:27:00;;;;;;;12.80;7.15;;;;;16.30;100778.00;;;;5029334;28;20021;-79
2021/08/21 02:29:28;;;;;;;8.52;6.10;;;;;16.20;100758.00;;;;5029242;28;20036;-79
2021/08/21 02:31:55;;;;;;;18.60;7.50;;;;;16.30;100743.00;;;;5027892;28;20040;-80
2021/08/21 02:34:28;;;;;;;15.50;7.68;;;;;16.30;100754.00;;;;5027771;28;20068;-79
2021/08/21 02:36:55;;;;;;;10.38;7.35;;;;;16.40;100760.00;;;;5029596;28;20044;-80
2021/08/21 02:39:21;;;;;;;14.57;7.35;;;;;16.30;100773.00;;;;5028607;28;20089;-80
2021/08/21 02:41:48;;;;;;;8.38;6.85;;;;;16.30;100734.00;;;;5029029;28;20514;-79
2021/08/21 02:44:14;;;;;;;7.75;6.40;;;;;16.20;100728.00;;;;5029535;28;20033;-80
2021/08/21 02:46:41;;;;;;;10.20;6.10;;;;;16.10;100796.00;;;;5029282;28;20124;-79
2021/08/21 02:49:08;;;;;;;14.48;7.63;;;;;16.10;100797.00;;;;5028869;28;20025;-80
2021/08/21 02:51:34;;;;;;;15.00;7.32;;;;;16.10;100816.00;;;;5029173;28;20030;-78
2021/08/21 02:54:01;;;;;;;9.70;6.55;;;;;16.10;100835.00;;;;5028923;28;20398;-79
2021/08/21 02:56:27;;;;;;;8.93;7.07;;;;;16.20;100844.00;;;;5029003;28;20037;-77
2021/08/21 02:58:54;;;;;;;9.80;7.78;;;;;16.30;100862.00;;;;5028657;28;20037;-79
2021/08/21 03:01:20;;;;;;;12.27;8.45;;;;;16.30;100852.00;;;;5029186;28;20026;-80
2021/08/21 03:03:47;;;;;;;12.43;8.90;;;;;16.20;100852.00;;;;5027031;28;20065;-78
2021/08/21 03:06:14;;;;;;;16.10;10.07;;;;;16.20;100813.00;;;;5027377;28;20076;-79
2021/08/21 03:08:40;;;;;;;14.40;9.90;;;;;16.10;100815.00;;;;5028658;28;20033;-80
2021/08/21 03:11:07;;;;;;;16.75;11.52;;;;;16.10;100799.00;;;;5029165;28;20510;-80
2021/08/21 03:13:33;;;;;;;15.88;10.10;;;;;16.00;100784.00;;;;5028220;28;20163;-79
2021/08/21 03:16:00;;;;;;;14.25;10.90;;;;;15.90;100748.00;;;;5027153;28;20126;-79
2021/08/21 03:18:26;;;;;;;16.05;11.63;;;;;15.90;100724.00;;;;5028513;28;20033;-80
2021/08/21 03:20:54;;;;;;;20.85;13.00;;;;;15.90;100713.00;;;;5028712;28;20119;-80
2021/08/21 03:23:20;;;;;;;19.83;13.48;;;;;15.80;100743.00;;;;5028492;28;20408;-80
2021/08/21 03:25:47;;;;;;;16.80;13.50;;;;;15.70;100720.00;;;;5026549;28;20036;-79
2021/08/21 03:28:13;;;;;;;20.35;13.60;;;;;15.70;100766.00;;;;5027449;28;20029;-79
2021/08/21 03:30:40;;;;;;;19.60;15.02;;;;;15.70;100789.00;;;;5027839;28;20381;-78
2021/08/21 03:33:08;;;;;;;21.17;15.73;;;;;15.70;100856.00;;;;5026383;28;20036;-77
2021/08/21 03:35:35;;;;;;;22.00;16.02;;;;;15.70;100862.00;;;;5028534;28;20029;-77
2021/08/21 03:38:02;;;;;;;18.63;14.02;;;;;15.70;100876.00;;;;5028275;28;20518;-76
2021/08/21 03:40:29;;;;;;;20.98;14.88;;;;;15.70;100847.00;;;;5028101;28;20116;-78
2021/08/21 03:42:55;;;;;;;24.20;13.65;;;;;15.60;100788.00;;;;5027341;28;20404;-78
2021/08/21 03:45:22;;;;;;;17.15;12.23;;;;;15.50;100792.00;;;;5027923;28;20115;-78
2021/08/21 03:47:49;;;;;;;21.98;13.23;;;;;15.50;100778.00;;;;5027740;28;20488;-79
2021/08/21 03:50:15;;;;;;;20.75;13.60;;;;;15.40;100809.00;;;;5027630;28;20060;-76
2021/08/21 03:52:42;;;;;;;21.63;15.00;;;;;15.40;100813.00;;;;5027692;28;20034;-76
2021/08/21 03:55:09;;;;;;;24.92;15.35;;;;;15.30;100874.00;;;;5027738;28;20053;-76
2021/08/21 03:57:36;;;;;;;25.75;15.43;;;;;15.20;100856.00;;;;5027484;28;20025;-76
2021/08/21 04:00:04;;;;;;;22.75;14.25;;;;;15.20;100786.00;;;;5026462;28;20264;-79
2021/08/21 04:02:31;;;;;;;21.05;16.77;;;;;15.20;100856.00;;;;5027963;28;20038;-79
2021/08/21 04:04:57;;;;;;;21.65;15.32;;;;;15.20;100901.00;;;;5027497;28;20055;-77
2021/08/21 04:07:24;;;;;;;17.92;12.75;;;;;15.20;100869.00;;;;5027500;28;20400;-78
2021/08/21 04:09:50;;;;;;;22.58;13.02;;;;;15.10;100785.00;;;;5027388;28;20116;-77
2021/08/21 04:12:18;;;;;;;17.00;12.23;;;;;15.10;100809.00;;;;5027116;28;20030;-77
2021/08/21 04:14:46;;;;;;;19.88;13.13;;;;;15.00;100811.00;;;;5027637;28;20507;-78
2021/08/21 04:17:13;;;;;;;20.63;13.25;;;;;15.00;100802.00;;;;5027323;28;20045;-78
2021/08/21 04:19:39;;;;;;;19.27;11.82;;;;;15.00;100778.00;;;;5027399;28;20065;-79
2021/08/21 04:22:06;;;;;;;15.18;11.25;;;;;15.00;100791.00;;;;5027026;28;20079;-76
2021/08/21 04:24:33;;;;;;;17.95;12.38;;;;;14.90;100783.00;;;;5027266;28;20040;-77
2021/08/21 04:26:59;;;;;;;17.65;11.73;;;;;14.90;100767.00;;;;5027405;28;20492;-76
2021/08/21 04:29:26;;;;;;;20.35;11.70;;;;;14.90;100768.00;;;;5027410;28;20021;-77
2021/08/21 04:31:52;;;;;;;15.65;10.35;;;;;14.90;100752.00;;;;5027284;28;20025;-76
2021/08/21 04:34:19;;;;;;;17.90;10.07;;;;;14.90;100731.00;;;;5027328;28;20045;-77
2021/08/21 04:36:45;;;;;;;18.83;11.18;;;;;15.00;100765.00;;;;5027076;28;20044;-77
2021/08/21 04:39:12;;;;;;;26.48;11.43;;;;;14.90;100728.00;;;;5026710;28;20411;-76
2021/08/21 04:41:39;;;;;;;19.00;11.43;;;;;14.90;100761.00;;;;5026522;28;20060;-78
2021/08/21 04:44:05;;;;;;;17.52;11.75;;;;;14.80;100714.00;;;;5026693;28;20041;-79
2021/08/21 04:46:34;;;;;;;19.17;11.70;;;;;14.90;100710.00;;;;5027497;28;20030;-78
2021/08/21 04:49:01;;;;;;;19.63;11.93;;;;;14.90;100643.00;;;;5026563;28;20025;-79
2021/08/21 04:51:28;;;;;;;18.33;11.52;;;;;14.90;100633.00;;;;5025872;28;20037;-81
2021/08/21 04:53:54;;;;;;;15.38;10.75;;;;;15.00;100577.00;;;;5026664;28;20028;-78
2021/08/21 04:56:21;;;;;;;17.33;10.82;;;;;14.90;100605.00;;;;5026696;28;20042;-79
2021/08/21 04:58:47;;;;;;;17.55;10.95;;;;;14.90;100632.00;;;;5026782;28;20030;-80
2021/08/21 05:01:14;;;;;;;17.33;10.82;;;;;14.90;100617.00;;;;5026841;28;20523;-79
2021/08/21 05:03:40;;;;;;;21.20;11.05;;;;;14.90;100726.00;;;;5026766;28;20511;-77
2021/08/21 05:06:07;;;;;;;15.98;11.85;;;;;14.90;100738.00;;;;5026782;28;20025;-76
2021/08/21 05:08:34;;;;;;;15.85;10.80;;;;;15.00;100705.00;;;;5026689;28;20044;-75
2021/08/21 05:11:00;;;;;;;13.73;9.95;;;;;15.00;100622.00;;;;5026211;28;20071;-77
2021/08/21 05:13:27;;;;;;;10.57;8.88;;;;;14.90;100629.00;;;;5026816;28;20492;-77
2021/08/21 05:15:53;;;;;;;12.05;8.77;;;;;14.90;100650.00;;;;5026541;28;20025;-77
2021/08/21 05:18:27;;;;;;;14.27;9.50;;;;;14.90;100603.00;;;;5026886;28;20037;-76
2021/08/21 05:21:04;;;;;;;12.70;8.32;;;;;14.90;100640.00;;;;5026736;28;20041;-77
2021/08/21 05:23:31;;;;;;;13.60;8.93;;;;;14.90;100674.00;;;;5026682;28;20029;-76
2021/08/21 05:25:57;;;;;;;14.07;8.73;;;;;15.00;100677.00;;;;5026503;28;20079;-77
2021/08/21 05:28:24;;;;;;;9.18;8.27;;;;;14.90;100681.00;;;;5026782;28;20045;-78
2021/08/21 05:30:51;;;;;;;14.60;8.52;;;;;14.90;100644.00;;;;5026531;28;20022;-76
2021/08/21 05:33:18;;;;;;;9.23;6.97;;;;;15.00;100626.00;;;;5026468;28;20036;-77
2021/08/21 05:35:45;;;;;;;10.75;7.03;;;;;15.00;100624.00;;;;5025901;28;20030;-78
2021/08/21 05:38:12;;;;;;;8.52;6.60;;;;;15.00;100667.00;;;;5026429;28;20522;-76
2021/08/21 05:40:39;;;;;;;8.82;6.95;;;;;14.90;100668.00;;;;5026242;28;20508;-76
2021/08/21 05:43:06;;;;;;;9.68;6.28;;;;;15.00;100658.00;;;;5026279;28;20025;-77
2021/08/21 05:45:33;;;;;;;8.15;7.10;;;;;15.00;100667.00;;;;5026347;28;20057;-77
2021/08/21 05:47:59;;;;;;;16.83;7.13;;;;;14.90;100639.00;;;;5026909;28;20120;-78
2021/08/21 05:50:26;;;;;;;10.88;7.35;;;;;14.90;100681.00;;;;5025930;28;20041;-77
2021/08/21 05:52:53;;;;;;;10.85;7.57;;;;;14.90;100679.00;;;;5029192;28;20029;-78
2021/08/21 05:55:20;;;;;;;11.52;7.97;;;;;14.90;100683.00;;;;5029965;28;20045;-75
2021/08/21 05:57:47;;;;;;;10.15;7.55;;;;;14.90;100682.00;;;;5030153;28;20040;-77
2021/08/21 06:00:14;;;;;;;8.00;7.05;;;;;14.90;100698.00;;;;5029915;28;20034;-77
2021/08/21 06:02:42;;;;;;;14.05;7.20;;;;;14.90;100674.00;;;;5029733;28;20082;-77
2021/08/21 06:05:11;;;;;;;8.95;7.28;;;;;14.80;100668.00;;;;5029732;28;20057;-78
2021/08/21 06:07:39;;;;;;;9.25;7.03;;;;;14.80;100657.00;;;;5029744;28;20029;-77
2021/08/21 06:10:06;;;;;;;10.90;7.07;;;;;14.80;100675.00;;;;5029846;28;20108;-80
2021/08/21 06:12:33;;;;;;;10.23;7.65;;;;;14.70;100671.00;;;;5029719;28;20507;-78
2021/08/21 06:15:00;;;;;;;8.90;7.13;;;;;14.70;100659.00;;;;5030302;28;20417;-77
2021/08/21 06:17:26;;;;;;;11.02;7.10;;;;;14.80;100708.00;;;;5030419;28;20117;-78
2021/08/21 06:19:56;;;;;;;10.23;6.95;;;;;14.80;100683.00;;;;5029753;28;20403;-78
2021/08/21 06:22:23;;;;;;;7.60;6.65;;;;;14.80;100683.00;;;;5030095;28;20499;-76
2021/08/21 06:24:50;;;;;;;12.02;6.72;;;;;14.90;100706.00;;;;5029875;28;20116;-76
2021/08/21 06:27:16;;;;;;;8.63;6.55;;;;;14.80;100674.00;;;;5029865;28;20508;-76
2021/08/21 06:29:43;;;;;;;7.53;6.57;;;;;14.80;100691.00;;;;5030783;28;20041;-78
2021/08/21 06:32:09;;;;;;;7.25;6.50;;;;;14.80;100716.00;;;;5030818;28;20036;-78
2021/08/21 06:34:36;;;;;;;8.55;7.30;;;;;14.80;100749.00;;;;5030272;28;20029;-77
2021/08/21 06:37:08;;;;;;;12.52;7.10;;;;;14.80;100765.00;;;;5030810;28;20040;-80
2021/08/21 06:39:35;;;;;;;10.60;7.47;;;;;14.80;100759.00;;;;5030563;28;20522;-78
2021/08/21 06:42:02;;;;;;;12.40;7.57;;;;;14.80;100765.00;;;;5029758;28;20476;-78
2021/08/21 06:44:29;;;;;;;9.27;7.43;;;;;14.80;100752.00;;;;5029690;28;20149;-81
2021/08/21 06:46:56;;;;;;;8.85;6.90;;;;;14.70;100725.00;;;;5030495;28;20401;-81
2021/08/21 06:49:23;;;;;;;15.52;8.30;;;;;14.70;100742.00;;;;5029399;28;20543;-80
2021/08/21 06:51:49;;;;;;;10.48;7.38;;;;;14.80;100727.00;;;;5028218;28;20030;-78
2021/08/21 06:54:16;;;;;;;13.55;8.27;;;;;14.80;100728.00;;;;5030497;28;20045;-78
2021/08/21 06:56:42;;;;;;;11.30;8.45;;;;;14.80;100716.00;;;;5030037;28;20029;-79
2021/08/21 06:59:09;;;;;;;12.07;8.25;;;;;14.70;100721.00;;;;5029241;28;20066;-79
2021/08/21 07:01:37;;;;;;;11.98;8.77;;;;;14.70;100738.00;;;;5029114;28;20061;-82
2021/08/21 07:04:04;;;;;;;12.05;8.63;;;;;14.70;100732.00;;;;5030634;28;20396;-78
2021/08/21 07:06:31;;;;;;;15.88;9.90;;;;;14.70;100702.00;;;;5029975;28;20064;-80
2021/08/21 07:08:58;;;;;;;15.80;10.02;;;;;14.70;100719.00;;;;5029692;28;20025;-78
2021/08/21 07:11:24;;;;;;;12.68;10.20;;;;;14.70;100736.00;;;;5029253;28;20026;-78
2021/08/21 07:13:51;;;;;;;13.48;10.00;;;;;14.70;100736.00;;;;5029496;28;20149;-77
2021/08/21 07:16:17;;;;;;;16.27;10.77;;;;;14.70;100723.00;;;;5029755;28;20021;-81
2021/08/21 07:18:44;;;;;;;14.85;10.80;;;;;14.70;100639.00;;;;5029039;28;20051;-79
2021/08/21 07:21:11;;;;;;;14.30;9.38;;;;;14.60;100713.00;;;;5028752;28;20022;-78
2021/08/21 07:23:38;;;;;;;16.88;10.35;;;;;14.60;100682.00;;;;5028746;28;20025;-80
2021/08/21 07:26:05;;;;;;;12.85;9.88;;;;;14.60;100667.00;;;;5028590;28;20025;-78
2021/08/21 07:28:32;;;;;;;12.88;9.50;;;;;14.50;100685.00;;;;5028488;28;20087;-78
2021/08/21 07:31:00;;;;;;;14.30;10.68;;;;;14.50;100688.00;;;;5028548;28;20032;-78
2021/08/21 07:33:28;;;;;;;15.20;10.75;;;;;14.50;100692.00;;;;5027269;28;20029;-79
2021/08/21 07:35:55;;;;;;;17.95;10.60;;;;;14.50;100726.00;;;;5027966;28;20132;-78
2021/08/21 07:38:21;;;;;;;15.20;10.43;;;;;14.50;100736.00;;;;5028134;28;20033;-78
2021/08/21 07:40:48;;;;;;;14.63;9.82;;;;;14.50;100730.00;;;;5028344;28;20084;-78
2021/08/21 07:43:15;;;;;;;11.05;9.65;;;;;14.50;100750.00;;;;5028798;28;20025;-78
2021/08/21 07:45:42;;;;;;;14.55;9.38;;;;;14.50;100742.00;;;;5028490;28;20029;-78
2021/08/21 07:48:09;;;;;;;13.95;9.27;;;;;14.50;100720.00;;;;5028506;28;20029;-78
2021/08/21 07:50:35;;;;;;;14.70;10.10;;;;;14.50;100716.00;;;;5028276;28;20032;-78
2021/08/21 07:53:02;;;;;;;16.27;10.05;;;;;14.50;100718.00;;;;5028786;28;20492;-78
2021/08/21 07:55:29;;;;;;;19.42;10.38;;;;;14.50;100698.00;;;;5028823;28;20037;-78
2021/08/21 07:57:55;;;;;;;18.55;9.52;;;;;14.50;100730.00;;;;5028637;28;20029;-79
2021/08/21 08:00:22;;;;;;;15.93;9.88;;;;;14.50;100772.00;;;;5028831;28;20057;-78
2021/08/21 08:02:49;;;;;;;15.77;8.50;;;;;14.50;100730.00;;;;5028499;28;20029;-78
2021/08/21 08:05:16;;;;;;;14.35;8.80;;;;;14.50;100741.00;;;;5027615;28;20026;-77
2021/08/21 08:07:42;;;;;;;15.05;10.10;;;;;14.50;100738.00;;;;5027654;28;20044;-78
2021/08/21 08:10:09;;;;;;;15.13;8.95;;;;;14.50;100767.00;;;;5028387;28;20112;-79
2021/08/21 08:12:36;;;;;;;16.75;9.52;;;;;14.50;100770.00;;;;5028450;28;20037;-80
2021/08/21 08:15:03;;;;;;;14.05;9.30;;;;;14.60;100755.00;;;;5027223;28;20033;-78
2021/08/21 08:17:30;;;;;;;16.38;8.60;;;;;14.60;100730.00;;;;5028134;28;20140;-80
2021/08/21 08:19:57;;;;;;;14.95;9.32;;;;;14.60;100749.00;;;;5026841;28;20029;-79
2021/08/21 08:22:25;;;;;;;12.55;9.18;;;;;14.60;100754.00;;;;5027966;28;20029;-78
2021/08/21 08:24:51;;;;;;;15.27;8.98;;;;;14.60;100743.00;;;;5029238;28;20033;-79
2021/08/21 08:27:18;;;;;;;11.70;8.55;;;;;14.50;100775.00;;;;5028591;28;20064;-80
2021/08/21 08:29:45;;;;;;;14.88;9.02;;;;;14.50;100793.00;;;;5027347;28;20030;-78
2021/08/21 08:32:12;;;;;;;13.43;7.95;;;;;14.50;100796.00;;;;5025891;28;20037;-78
2021/08/21 08:34:38;;;;;;;12.88;8.27;;;;;14.50;100785.00;;;;5026474;28;20037;-79
2021/08/21 08:37:09;;;;;;;12.77;8.10;;;;;14.60;100799.00;;;;5026750;28;20029;-78
2021/08/21 08:39:36;;;;;;;18.85;10.23;;;;;14.60;100786.00;;;;5027056;28;20045;-79
2021/08/21 08:42:03;;;;;;;15.60;8.93;;;;;14.60;100763.00;;;;5026922;28;20034;-78
2021/08/21 08:44:33;;;;;;;13.57;8.30;;;;;14.70;100779.00;;;;5025618;28;20025;-80
2021/08/21 08:47:01;;;;;;;15.18;8.45;;;;;14.70;100756.00;;;;5026425;28;20528;-81
2021/08/21 08:49:29;;;;;;;14.05;8.00;;;;;14.70;100788.00;;;;5026560;28;20492;-80
2021/08/21 08:51:56;;;;;;;16.85;7.93;;;;;14.70;100789.00;;;;5029060;28;20030;-78
2021/08/21 08:54:23;;;;;;;14.18;8.23;;;;;14.70;100821.00;;;;5031820;28;20505;-79
2021/08/21 08:56:50;;;;;;;15.30;7.68;;;;;14.70;100819.00;;;;5031677;28;20400;-80
2021/08/21 08:59:16;;;;;;;17.90;8.60;;;;;14.70;100803.00;;;;5026523;28;20056;-82
2021/08/21 09:01:44;;;;;;;14.40;8.52;;;;;14.70;100790.00;;;;5025714;28;20041;-77
2021/08/21 09:04:29;;;;;;;16.42;8.00;;;;;14.70;100811.00;;;;5027450;28;20056;-79
2021/08/21 09:06:55;;;;;;;18.75;8.02;;;;;14.70;100823.00;;;;5026508;28;20030;-79
2021/08/21 09:09:25;;;;;;;17.17;8.65;;;;;14.70;100826.00;;;;5026679;28;20408;-79
2021/08/21 09:11:53;;;;;;;17.63;8.48;;;;;14.70;100819.00;;;;5027135;28;20582;-79
2021/08/21 09:14:28;;;;;;;16.67;8.32;;;;;14.70;100806.00;;;;5026621;28;20018;-79
2021/08/21 09:17:18;;;;;;;15.10;8.40;;;;;14.70;100802.00;;;;5027263;28;20464;-81
2021/08/21 09:19:46;;;;;;;15.07;8.43;;;;;14.70;100827.00;;;;5026260;28;20033;-79
2021/08/21 09:22:13;;;;;;;16.75;8.38;;;;;14.70;100867.00;;;;5026745;28;20362;-81
2021/08/21 09:24:41;;;;;;;15.13;8.20;;;;;14.70;100876.00;;;;5026407;28;20112;-82
2021/08/21 09:27:22;;;;;;;19.63;9.45;;;;;14.70;100878.00;;;;5027754;28;20033;-80
2021/08/21 09:30:15;;;;;;;17.95;8.35;;;;;14.70;100868.00;;;;5029787;28;20423;-79
2021/08/21 09:32:42;;;;;;;17.02;8.98;;;;;14.70;100893.00;;;;5030746;28;20033;-78
2021/08/21 09:35:12;;;;;;;17.35;9.02;;;;;14.70;100929.00;;;;5030237;28;20056;-81
2021/08/21 09:37:49;;;;;;;17.70;9.10;;;;;14.70;100950.00;;;;5029462;28;20116;-77
2021/08/21 09:40:30;;;;;;;17.50;8.68;;;;;14.70;100957.00;;;;5029681;28;20049;-79
2021/08/21 09:42:58;;;;;;;21.33;9.70;;;;;14.70;100991.00;;;;5030054;28;20029;-79
2021/08/21 09:45:25;;;;;;;19.58;9.63;;;;;14.70;101007.00;;;;5027509;28;20124;-81
2021/08/21 09:48:02;;;;;;;19.60;8.90;;;;;14.70;100975.00;;;;5029644;28;20112;-79
2021/08/21 09:50:37;;;;;;;17.20;9.18;;;;;14.70;100985.00;;;;5030519;28;20038;-80
2021/08/21 09:53:07;;;;;;;22.42;9.43;;;;;14.70;100992.00;;;;5030988;28;20519;-79
2021/08/21 09:55:34;;;;;;;18.63;9.60;;;;;14.70;100955.00;;;;5030266;28;20033;-78
2021/08/21 09:58:01;;;;;;;17.17;9.25;;;;;14.70;100970.00;;;;5030478;28;20029;-81
2021/08/21 10:00:29;;;;;;;15.32;9.02;;;;;14.70;100974.00;;;;5029805;28;20052;-81
2021/08/21 10:02:56;;;;;;;18.08;8.32;;;;;14.70;100974.00;;;;5029798;28;20546;-79
2021/08/21 10:05:24;;;;;;;23.40;9.25;;;;;14.70;100951.00;;;;5029071;28;20124;-79
2021/08/21 10:07:57;;;;;;;18.98;8.63;;;;;14.70;100938.00;;;;5028665;28;20025;-81
2021/08/21 10:10:25;;;;;;;15.35;9.07;;;;;14.70;100900.00;;;;5030465;28;20083;-81
2021/08/21 10:12:55;;;;;;;20.35;9.43;;;;;14.70;100885.00;;;;5029484;28;20108;-83
2021/08/21 10:15:22;;;;;;;22.23;9.10;;;;;14.70;100873.00;;;;5029449;28;20072;-82
2021/08/21 10:17:50;;;;;;;13.50;7.80;;;;;14.70;100844.00;;;;5030165;28;20053;-79
2021/08/21 10:20:17;;;;;;;17.38;8.25;;;;;14.60;100866.00;;;;5030265;28;20488;-78
2021/08/21 10:22:44;;;;;;;15.05;8.35;;;;;14.70;100895.00;;;;5029469;28;20507;-79
2021/08/21 10:25:12;;;;;;;16.00;8.10;;;;;14.70;100936.00;;;;5029370;28;20083;-80
2021/08/21 10:27:55;;;;;;;20.45;8.77;;;;;14.70;100952.00;;;;5027471;28;20029;-77
2021/08/21 10:30:25;;;;;;;16.20;8.75;;;;;14.70;100976.00;;;;5027778;28;20039;-78
2021/08/21 10:33:03;;;;;;;22.35;8.95;;;;;14.70;100978.00;;;;5029055;28;20029;-80
2021/08/21 10:35:47;;;;;;;17.40;9.15;;;;;14.70;101003.00;;;;5030587;28;20021;-81
2021/08/21 10:38:37;;;;;;;14.80;8.32;;;;;14.70;100997.00;;;;5029435;28;20140;-77
2021/08/21 10:41:10;;;;;;;17.08;8.73;;;;;14.70;101005.00;;;;5031709;28;20029;-80
2021/08/21 10:43:53;;;;;;;13.73;7.97;;;;;14.70;101021.00;;;;5029981;28;20029;-81
2021/08/21 10:46:32;;;;;;;18.27;8.27;;;;;14.70;101030.00;;;;5030740;28;20061;-77
2021/08/21 10:49:08;;;;;;;17.58;9.10;;;;;14.70;101037.00;;;;5030389;28;20029;-79
2021/08/21 10:51:46;;;;;;;20.27;9.90;;;;;14.70;101038.00;;;;5030611;28;20026;-79
2021/08/21 10:54:27;;;;;;;16.73;8.93;;;;;14.70;101044.00;;;;5029881;28;20032;-79
2021/08/21 10:56:55;;;;;;;;;;;;;14.70;101038.00;;;;5029912;28;20429;-78
2021/08/21 10:59:53;;;;;;;20.67;7.95;;;;;14.70;101037.00;;;;5030362;28;19917;-78
2021/08/21 11:02:28;;;;;;;22.23;9.63;;;;;14.70;101020.00;;;;5017761;28;20382;-79
2021/08/21 11:04:55;;;;;;;17.70;8.90;;;;;14.70;101012.00;;;;5030260;28;20108;-80
2021/08/21 11:07:31;;;;;;;17.60;9.43;;;;;14.70;101046.00;;;;5029537;28;20025;-80
2021/08/21 11:10:19;;;;;;;22.27;9.50;;;;;14.70;101037.00;;;;5030297;28;20119;-82
2021/08/21 11:12:49;;;;;;;15.32;8.90;;;;;14.70;101002.00;;;;5029729;28;20496;-78
2021/08/21 11:15:18;;;;;;;23.63;9.35;;;;;14.70;101016.00;;;;5029109;28;20030;-79
2021/08/21 11:17:45;;;;;;;16.38;8.95;;;;;14.60;101029.00;;;;5028332;28;20030;-79
2021/08/21 11:20:25;;;;;;;16.23;10.40;;;;;14.60;101050.00;;;;5031150;28;20040;-78
2021/08/21 11:23:07;;;;;;;20.15;9.70;;;;;14.60;101062.00;;;;5031122;28;20030;-79
2021/08/21 11:25:44;;;;;;;21.27;9.90;;;;;14.60;101077.00;;;;5029607;28;20412;-78
2021/08/21 11:28:22;;;;;;;18.20;9.93;;;;;14.60;101080.00;;;;5029957;28;20035;-79
2021/08/21 11:31:11;;;;;;;23.50;11.15;;;;;14.70;101069.00;;;;5030727;28;20032;-80
2021/08/21 11:33:39;;;;;;;18.42;10.45;;;;;14.70;101053.00;;;;5030673;28;20044;-78
2021/08/21 11:36:10;;;;;;;18.38;10.57;;;;;14.80;101058.00;;;;5030641;28;20053;-79
2021/08/21 11:38:39;;;;;;;26.20;11.13;;;;;14.90;101045.00;;;;5029420;28;20519;-80
2021/08/21 11:41:16;;;;;;;15.00;9.25;;;;;15.00;101034.00;;;;5030942;28;20075;-79
2021/08/21 11:43:43;;;;;;;19.45;9.55;;;;;15.00;101022.00;;;;5027885;28;20021;-77
2021/08/21 11:46:11;;;;;;;14.25;8.57;;;;;15.00;101031.00;;;;5029952;28;20037;-79
2021/08/21 11:48:41;;;;;;;17.45;9.18;;;;;15.00;101012.00;;;;5029099;28;20072;-78
2021/08/21 11:51:09;;;;;;;16.23;8.75;;;;;15.00;101030.00;;;;5029298;28;20033;-80
2021/08/21 11:53:41;;;;;;;15.60;8.18;;;;;14.90;101056.00;;;;5029425;28;20116;-79
2021/08/21 11:56:10;;;;;;;15.18;9.10;;;;;14.80;101053.00;;;;5027809;28;20464;-77
2021/08/21 11:58:48;;;;;;;14.80;8.38;;;;;14.90;101062.00;;;;5029819;28;20037;-78
2021/08/21 12:01:17;;;;;;;28.23;10.98;;;;;15.20;101039.00;;;;5026546;28;20511;-78
2021/08/21 12:06:37;;;;;;;17.25;8.93;;;;;15.40;101065.00;;;;5026581;28;20037;-80
2021/08/21 12:09:10;;;;;;;15.80;8.70;;;;;15.40;101071.00;;;;5026818;28;20500;-78